sensor_id;sensor_type;location;lat;lon;timestamp;P1;durP1;ratioP1;P2;durP2;ratioP2
20976;SDS011;10647;51.016;3.720;2023-01-30T00:01:56;71.30;;;34.13;;
20976;SDS011;10647;51.016;3.720;2023-01-30T00:04:23;67.50;;;31.57;;
20976;SDS011;10647;51.016;3.720;2023-01-30T00:06:54;69.87;;;30.07;;
20976;SDS011;10647;51.016;3.720;2023-01-30T00:09:21;71.03;;;31.17;;
20976;SDS011;10647;51.016;3.720;2023-01-30T00:14:19;70.03;;;31.37;;
20976;SDS011;10647;51.016;3.720;2023-01-30T00:16:52;71.57;;;32.47;;
20976;SDS011;10647;51.016;3.720;2023-01-30T00:19:20;66.53;;;29.70;;
20976;SDS011;10647;51.016;3.720;2023-01-30T00:21:47;67.97;;;31.27;;
20976;SDS011;10647;51.016;3.720;2023-01-30T00:24:19;70.90;;;32.23;;
20976;SDS011;10647;51.016;3.720;2023-01-30T00:26:45;67.20;;;31.10;;
20976;SDS011;10647;51.016;3.720;2023-01-30T00:31:51;63.97;;;30.57;;
20976;SDS011;10647;51.016;3.720;2023-01-30T00:34:18;61.07;;;30.93;;
20976;SDS011;10647;51.016;3.720;2023-01-30T00:36:47;71.20;;;32.97;;
20976;SDS011;10647;51.016;3.720;2023-01-30T00:39:15;65.60;;;29.53;;
20976;SDS011;10647;51.016;3.720;2023-01-30T00:41:43;62.40;;;28.90;;
20976;SDS011;10647;51.016;3.720;2023-01-30T00:44:28;61.53;;;28.70;;
20976;SDS011;10647;51.016;3.720;2023-01-30T00:47:19;57.97;;;28.17;;
20976;SDS011;10647;51.016;3.720;2023-01-30T00:52:27;56.07;;;26.90;;
20976;SDS011;10647;51.016;3.720;2023-01-30T00:55:13;55.47;;;25.43;;
20976;SDS011;10647;51.016;3.720;2023-01-30T00:57:46;53.57;;;26.67;;
20976;SDS011;10647;51.016;3.720;2023-01-30T01:00:32;50.40;;;24.43;;
20976;SDS011;10647;51.016;3.720;2023-01-30T01:02:59;48.47;;;24.90;;
20976;SDS011;10647;51.016;3.720;2023-01-30T01:08:49;49.87;;;24.77;;
20976;SDS011;10647;51.016;3.720;2023-01-30T01:11:23;50.43;;;22.97;;
20976;SDS011;10647;51.016;3.720;2023-01-30T01:13:54;46.00;;;23.20;;
20976;SDS011;10647;51.016;3.720;2023-01-30T01:16:39;47.27;;;23.27;;
20976;SDS011;10647;51.016;3.720;2023-01-30T01:19:06;55.07;;;23.13;;
20976;SDS011;10647;51.016;3.720;2023-01-30T01:21:34;51.73;;;23.00;;
20976;SDS011;10647;51.016;3.720;2023-01-30T01:24:01;48.67;;;22.07;;
20976;SDS011;10647;51.016;3.720;2023-01-30T01:26:29;41.57;;;21.77;;
20976;SDS011;10647;51.016;3.720;2023-01-30T01:28:58;39.23;;;20.07;;
20976;SDS011;10647;51.016;3.720;2023-01-30T01:31:32;38.80;;;19.13;;
20976;SDS011;10647;51.016;3.720;2023-01-30T01:34:00;38.53;;;18.67;;
20976;SDS011;10647;51.016;3.720;2023-01-30T01:36:30;38.50;;;19.10;;
20976;SDS011;10647;51.016;3.720;2023-01-30T01:38:57;39.67;;;20.10;;
20976;SDS011;10647;51.016;3.720;2023-01-30T01:41:31;36.13;;;18.30;;
20976;SDS011;10647;51.016;3.720;2023-01-30T01:44:00;38.07;;;16.57;;
20976;SDS011;10647;51.016;3.720;2023-01-30T01:46:37;34.40;;;17.70;;
20976;SDS011;10647;51.016;3.720;2023-01-30T01:49:34;33.53;;;15.97;;
20976;SDS011;10647;51.016;3.720;2023-01-30T01:52:12;36.30;;;15.03;;
20976;SDS011;10647;51.016;3.720;2023-01-30T01:57:28;34.83;;;14.37;;
20976;SDS011;10647;51.016;3.720;2023-01-30T01:59:58;21.97;;;12.23;;
20976;SDS011;10647;51.016;3.720;2023-01-30T02:02:45;25.97;;;11.83;;
20976;SDS011;10647;51.016;3.720;2023-01-30T02:05:42;23.60;;;10.77;;
20976;SDS011;10647;51.016;3.720;2023-01-30T02:12:00;25.50;;;9.63;;
20976;SDS011;10647;51.016;3.720;2023-01-30T02:14:14;17.70;;;8.50;;
20976;SDS011;10647;51.016;3.720;2023-01-30T02:22:32;22.63;;;8.57;;
20976;SDS011;10647;51.016;3.720;2023-01-30T02:25:41;19.00;;;8.30;;
20976;SDS011;10647;51.016;3.720;2023-01-30T02:28:35;16.20;;;6.90;;
20976;SDS011;10647;51.016;3.720;2023-01-30T02:31:16;16.23;;;6.80;;
20976;SDS011;10647;51.016;3.720;2023-01-30T02:37:15;17.20;;;6.40;;
20976;SDS011;10647;51.016;3.720;2023-01-30T02:42:30;19.20;;;7.43;;
20976;SDS011;10647;51.016;3.720;2023-01-30T02:45:16;19.87;;;7.20;;
20976;SDS011;10647;51.016;3.720;2023-01-30T02:47:59;18.70;;;7.07;;
20976;SDS011;10647;51.016;3.720;2023-01-30T02:50:46;18.60;;;6.63;;
20976;SDS011;10647;51.016;3.720;2023-01-30T02:53:33;15.43;;;6.33;;
20976;SDS011;10647;51.016;3.720;2023-01-30T02:56:02;18.10;;;6.90;;
20976;SDS011;10647;51.016;3.720;2023-01-30T02:58:33;18.40;;;6.43;;
20976;SDS011;10647;51.016;3.720;2023-01-30T03:09:50;17.90;;;5.80;;
20976;SDS011;10647;51.016;3.720;2023-01-30T03:12:50;18.67;;;6.00;;
20976;SDS011;10647;51.016;3.720;2023-01-30T03:21:15;23.63;;;7.10;;
20976;SDS011;10647;51.016;3.720;2023-01-30T03:23:45;12.83;;;5.97;;
20976;SDS011;10647;51.016;3.720;2023-01-30T03:26:16;25.73;;;7.20;;
20976;SDS011;10647;51.016;3.720;2023-01-30T03:29:02;23.20;;;7.80;;
20976;SDS011;10647;51.016;3.720;2023-01-30T03:31:30;16.30;;;7.40;;
20976;SDS011;10647;51.016;3.720;2023-01-30T03:33:57;18.43;;;6.83;;
20976;SDS011;10647;51.016;3.720;2023-01-30T03:39:12;20.57;;;7.20;;
20976;SDS011;10647;51.016;3.720;2023-01-30T03:41:40;18.20;;;7.37;;
20976;SDS011;10647;51.016;3.720;2023-01-30T03:46:55;21.83;;;7.80;;
20976;SDS011;10647;51.016;3.720;2023-01-30T03:49:22;19.83;;;8.50;;
20976;SDS011;10647;51.016;3.720;2023-01-30T03:51:49;22.83;;;8.20;;
20976;SDS011;10647;51.016;3.720;2023-01-30T03:54:17;19.63;;;7.90;;
20976;SDS011;10647;51.016;3.720;2023-01-30T03:56:45;15.77;;;5.40;;
20976;SDS011;10647;51.016;3.720;2023-01-30T03:59:12;15.43;;;6.57;;
20976;SDS011;10647;51.016;3.720;2023-01-30T04:01:41;15.13;;;6.17;;
20976;SDS011;10647;51.016;3.720;2023-01-30T04:06:55;16.00;;;5.70;;
20976;SDS011;10647;51.016;3.720;2023-01-30T04:09:24;11.20;;;5.10;;
20976;SDS011;10647;51.016;3.720;2023-01-30T04:14:38;9.53;;;2.90;;
20976;SDS011;10647;51.016;3.720;2023-01-30T04:17:06;18.00;;;5.20;;
20976;SDS011;10647;51.016;3.720;2023-01-30T04:19:33;12.03;;;4.23;;
20976;SDS011;10647;51.016;3.720;2023-01-30T04:22:04;6.93;;;3.07;;
20976;SDS011;10647;51.016;3.720;2023-01-30T04:24:31;9.00;;;3.67;;
20976;SDS011;10647;51.016;3.720;2023-01-30T04:26:59;9.23;;;4.00;;
20976;SDS011;10647;51.016;3.720;2023-01-30T04:29:26;9.37;;;3.27;;
20976;SDS011;10647;51.016;3.720;2023-01-30T04:31:54;11.07;;;3.73;;
20976;SDS011;10647;51.016;3.720;2023-01-30T04:34:21;10.77;;;3.50;;
20976;SDS011;10647;51.016;3.720;2023-01-30T04:36:49;13.33;;;3.27;;
20976;SDS011;10647;51.016;3.720;2023-01-30T04:39:16;8.90;;;3.37;;
20976;SDS011;10647;51.016;3.720;2023-01-30T04:41:44;12.23;;;3.60;;
20976;SDS011;10647;51.016;3.720;2023-01-30T04:44:11;7.90;;;3.20;;
20976;SDS011;10647;51.016;3.720;2023-01-30T04:46:39;12.70;;;3.30;;
20976;SDS011;10647;51.016;3.720;2023-01-30T04:49:08;9.63;;;3.40;;
20976;SDS011;10647;51.016;3.720;2023-01-30T04:51:36;11.30;;;3.37;;
20976;SDS011;10647;51.016;3.720;2023-01-30T04:54:03;8.00;;;3.37;;
20976;SDS011;10647;51.016;3.720;2023-01-30T04:56:31;11.53;;;3.50;;
20976;SDS011;10647;51.016;3.720;2023-01-30T04:58:59;9.00;;;3.30;;
20976;SDS011;10647;51.016;3.720;2023-01-30T05:01:32;6.77;;;2.20;;
20976;SDS011;10647;51.016;3.720;2023-01-30T05:04:01;7.63;;;2.60;;
20976;SDS011;10647;51.016;3.720;2023-01-30T05:06:34;9.80;;;3.13;;
20976;SDS011;10647;51.016;3.720;2023-01-30T05:09:02;10.30;;;2.93;;
20976;SDS011;10647;51.016;3.720;2023-01-30T05:11:30;7.70;;;2.80;;
20976;SDS011;10647;51.016;3.720;2023-01-30T05:13:58;10.40;;;2.90;;
20976;SDS011;10647;51.016;3.720;2023-01-30T05:16:26;8.03;;;3.33;;
20976;SDS011;10647;51.016;3.720;2023-01-30T05:18:59;12.77;;;3.70;;
20976;SDS011;10647;51.016;3.720;2023-01-30T05:21:28;11.23;;;3.97;;
20976;SDS011;10647;51.016;3.720;2023-01-30T05:26:43;11.60;;;3.20;;
20976;SDS011;10647;51.016;3.720;2023-01-30T05:29:17;12.27;;;3.30;;
20976;SDS011;10647;51.016;3.720;2023-01-30T05:34:32;8.83;;;3.30;;
20976;SDS011;10647;51.016;3.720;2023-01-30T05:39:52;6.73;;;2.90;;
20976;SDS011;10647;51.016;3.720;2023-01-30T05:42:19;11.37;;;3.37;;
20976;SDS011;10647;51.016;3.720;2023-01-30T05:44:50;8.60;;;3.87;;
20976;SDS011;10647;51.016;3.720;2023-01-30T05:47:20;10.60;;;3.80;;
20976;SDS011;10647;51.016;3.720;2023-01-30T05:49:49;9.40;;;4.03;;
20976;SDS011;10647;51.016;3.720;2023-01-30T05:54:47;9.40;;;3.53;;
20976;SDS011;10647;51.016;3.720;2023-01-30T05:57:14;10.73;;;3.10;;
20976;SDS011;10647;51.016;3.720;2023-01-30T05:59:42;12.57;;;4.10;;
20976;SDS011;10647;51.016;3.720;2023-01-30T06:02:09;16.00;;;4.73;;
20976;SDS011;10647;51.016;3.720;2023-01-30T06:04:40;13.23;;;4.30;;
20976;SDS011;10647;51.016;3.720;2023-01-30T06:07:07;14.17;;;4.00;;
20976;SDS011;10647;51.016;3.720;2023-01-30T06:09:35;11.97;;;4.03;;
20976;SDS011;10647;51.016;3.720;2023-01-30T06:12:02;10.27;;;3.83;;
20976;SDS011;10647;51.016;3.720;2023-01-30T06:14:30;12.87;;;3.70;;
20976;SDS011;10647;51.016;3.720;2023-01-30T06:16:58;7.50;;;2.73;;
20976;SDS011;10647;51.016;3.720;2023-01-30T06:19:25;10.37;;;3.80;;
20976;SDS011;10647;51.016;3.720;2023-01-30T06:21:53;15.67;;;3.80;;
20976;SDS011;10647;51.016;3.720;2023-01-30T06:24:20;13.93;;;4.43;;
20976;SDS011;10647;51.016;3.720;2023-01-30T06:26:47;14.27;;;3.50;;
20976;SDS011;10647;51.016;3.720;2023-01-30T06:29:16;9.90;;;3.20;;
20976;SDS011;10647;51.016;3.720;2023-01-30T06:31:43;8.33;;;2.13;;
20976;SDS011;10647;51.016;3.720;2023-01-30T06:34:11;11.53;;;3.30;;
20976;SDS011;10647;51.016;3.720;2023-01-30T06:36:38;12.33;;;3.20;;
20976;SDS011;10647;51.016;3.720;2023-01-30T06:39:12;10.57;;;3.77;;
20976;SDS011;10647;51.016;3.720;2023-01-30T06:41:39;11.13;;;3.20;;
20976;SDS011;10647;51.016;3.720;2023-01-30T06:44:07;15.20;;;3.03;;
20976;SDS011;10647;51.016;3.720;2023-01-30T06:46:35;9.60;;;2.77;;
20976;SDS011;10647;51.016;3.720;2023-01-30T06:49:02;7.77;;;1.77;;
20976;SDS011;10647;51.016;3.720;2023-01-30T06:51:31;13.00;;;3.50;;
20976;SDS011;10647;51.016;3.720;2023-01-30T06:54:02;15.00;;;3.70;;
20976;SDS011;10647;51.016;3.720;2023-01-30T06:56:35;7.43;;;1.73;;
20976;SDS011;10647;51.016;3.720;2023-01-30T06:59:05;13.03;;;3.30;;
20976;SDS011;10647;51.016;3.720;2023-01-30T07:01:36;8.83;;;3.37;;
20976;SDS011;10647;51.016;3.720;2023-01-30T07:04:04;9.03;;;2.00;;
20976;SDS011;10647;51.016;3.720;2023-01-30T07:06:33;11.03;;;2.83;;
20976;SDS011;10647;51.016;3.720;2023-01-30T07:09:00;12.00;;;2.53;;
20976;SDS011;10647;51.016;3.720;2023-01-30T07:11:34;5.53;;;1.77;;
20976;SDS011;10647;51.016;3.720;2023-01-30T07:14:02;13.37;;;3.17;;
20976;SDS011;10647;51.016;3.720;2023-01-30T07:16:29;13.67;;;4.50;;
20976;SDS011;10647;51.016;3.720;2023-01-30T07:18:58;14.47;;;3.33;;
20976;SDS011;10647;51.016;3.720;2023-01-30T07:21:28;15.17;;;2.47;;
20976;SDS011;10647;51.016;3.720;2023-01-30T07:24:14;13.13;;;2.87;;
20976;SDS011;10647;51.016;3.720;2023-01-30T07:26:42;13.47;;;3.63;;
20976;SDS011;10647;51.016;3.720;2023-01-30T07:29:15;8.97;;;2.77;;
20976;SDS011;10647;51.016;3.720;2023-01-30T07:31:46;12.97;;;2.33;;
20976;SDS011;10647;51.016;3.720;2023-01-30T07:34:13;4.53;;;1.00;;
20976;SDS011;10647;51.016;3.720;2023-01-30T07:36:41;10.37;;;2.23;;
20976;SDS011;10647;51.016;3.720;2023-01-30T07:39:08;10.27;;;2.80;;
20976;SDS011;10647;51.016;3.720;2023-01-30T07:41:36;15.40;;;2.83;;
20976;SDS011;10647;51.016;3.720;2023-01-30T07:44:03;14.00;;;2.43;;
20976;SDS011;10647;51.016;3.720;2023-01-30T07:46:32;10.97;;;2.37;;
20976;SDS011;10647;51.016;3.720;2023-01-30T07:49:00;13.60;;;2.57;;
20976;SDS011;10647;51.016;3.720;2023-01-30T07:51:28;8.70;;;1.60;;
20976;SDS011;10647;51.016;3.720;2023-01-30T07:53:56;10.90;;;2.73;;
20976;SDS011;10647;51.016;3.720;2023-01-30T07:56:26;9.03;;;2.20;;
20976;SDS011;10647;51.016;3.720;2023-01-30T07:58:54;9.57;;;1.93;;
20976;SDS011;10647;51.016;3.720;2023-01-30T08:01:22;11.93;;;2.50;;
20976;SDS011;10647;51.016;3.720;2023-01-30T08:03:49;16.03;;;2.67;;
20976;SDS011;10647;51.016;3.720;2023-01-30T08:06:17;9.30;;;2.07;;
20976;SDS011;10647;51.016;3.720;2023-01-30T08:08:45;15.00;;;2.93;;
20976;SDS011;10647;51.016;3.720;2023-01-30T08:11:13;10.27;;;2.00;;
20976;SDS011;10647;51.016;3.720;2023-01-30T08:13:43;8.40;;;2.00;;
20976;SDS011;10647;51.016;3.720;2023-01-30T08:16:11;7.80;;;1.80;;
20976;SDS011;10647;51.016;3.720;2023-01-30T08:18:41;12.20;;;2.03;;
20976;SDS011;10647;51.016;3.720;2023-01-30T08:21:10;12.20;;;2.30;;
20976;SDS011;10647;51.016;3.720;2023-01-30T08:23:37;18.53;;;2.83;;
20976;SDS011;10647;51.016;3.720;2023-01-30T08:26:09;16.90;;;2.50;;
20976;SDS011;10647;51.016;3.720;2023-01-30T08:28:36;8.57;;;2.20;;
20976;SDS011;10647;51.016;3.720;2023-01-30T08:31:11;16.67;;;2.47;;
20976;SDS011;10647;51.016;3.720;2023-01-30T08:33:40;9.70;;;1.93;;
20976;SDS011;10647;51.016;3.720;2023-01-30T08:36:16;10.83;;;2.27;;
20976;SDS011;10647;51.016;3.720;2023-01-30T08:38:43;10.00;;;2.40;;
20976;SDS011;10647;51.016;3.720;2023-01-30T08:41:12;11.57;;;2.50;;
20976;SDS011;10647;51.016;3.720;2023-01-30T08:46:30;8.33;;;1.37;;
20976;SDS011;10647;51.016;3.720;2023-01-30T08:49:04;13.10;;;2.43;;
20976;SDS011;10647;51.016;3.720;2023-01-30T08:51:38;15.17;;;2.43;;
20976;SDS011;10647;51.016;3.720;2023-01-30T08:54:05;16.37;;;2.77;;
20976;SDS011;10647;51.016;3.720;2023-01-30T08:56:33;16.73;;;2.87;;
20976;SDS011;10647;51.016;3.720;2023-01-30T08:59:01;9.53;;;2.07;;
20976;SDS011;10647;51.016;3.720;2023-01-30T09:04:01;17.23;;;2.90;;
20976;SDS011;10647;51.016;3.720;2023-01-30T09:06:31;18.50;;;3.33;;
20976;SDS011;10647;51.016;3.720;2023-01-30T09:09:04;17.57;;;2.63;;
20976;SDS011;10647;51.016;3.720;2023-01-30T09:11:38;9.80;;;1.80;;
20976;SDS011;10647;51.016;3.720;2023-01-30T09:14:05;17.37;;;2.77;;
20976;SDS011;10647;51.016;3.720;2023-01-30T09:16:40;13.33;;;2.57;;
20976;SDS011;10647;51.016;3.720;2023-01-30T09:19:13;12.90;;;2.50;;
20976;SDS011;10647;51.016;3.720;2023-01-30T09:21:41;12.27;;;2.07;;
20976;SDS011;10647;51.016;3.720;2023-01-30T09:29:25;15.63;;;2.30;;
20976;SDS011;10647;51.016;3.720;2023-01-30T09:31:54;13.40;;;2.60;;
20976;SDS011;10647;51.016;3.720;2023-01-30T09:34:24;21.20;;;2.77;;
20976;SDS011;10647;51.016;3.720;2023-01-30T09:37:00;14.10;;;2.80;;
20976;SDS011;10647;51.016;3.720;2023-01-30T09:39:26;14.40;;;2.00;;
20976;SDS011;10647;51.016;3.720;2023-01-30T09:44:45;16.60;;;2.10;;
20976;SDS011;10647;51.016;3.720;2023-01-30T09:47:35;13.90;;;2.23;;
20976;SDS011;10647;51.016;3.720;2023-01-30T09:55:50;9.07;;;1.03;;
20976;SDS011;10647;51.016;3.720;2023-01-30T09:58:19;11.03;;;2.33;;
20976;SDS011;10647;51.016;3.720;2023-01-30T10:00:53;8.10;;;1.37;;
20976;SDS011;10647;51.016;3.720;2023-01-30T10:03:30;11.27;;;2.30;;
20976;SDS011;10647;51.016;3.720;2023-01-30T10:06:12;9.43;;;1.50;;
20976;SDS011;10647;51.016;3.720;2023-01-30T10:09:01;10.83;;;2.10;;
20976;SDS011;10647;51.016;3.720;2023-01-30T10:11:49;12.03;;;1.50;;
20976;SDS011;10647;51.016;3.720;2023-01-30T10:14:25;5.60;;;0.90;;
20976;SDS011;10647;51.016;3.720;2023-01-30T10:25:57;11.67;;;2.27;;
20976;SDS011;10647;51.016;3.720;2023-01-30T10:28:31;14.57;;;2.10;;
20976;SDS011;10647;51.016;3.720;2023-01-30T10:31:10;7.20;;;1.20;;
20976;SDS011;10647;51.016;3.720;2023-01-30T10:33:41;13.93;;;2.30;;
20976;SDS011;10647;51.016;3.720;2023-01-30T10:36:17;5.93;;;0.97;;
20976;SDS011;10647;51.016;3.720;2023-01-30T10:38:50;8.23;;;1.20;;
20976;SDS011;10647;51.016;3.720;2023-01-30T10:46:48;12.50;;;1.93;;
20976;SDS011;10647;51.016;3.720;2023-01-30T10:49:38;11.37;;;1.87;;
20976;SDS011;10647;51.016;3.720;2023-01-30T10:52:12;8.53;;;1.47;;
20976;SDS011;10647;51.016;3.720;2023-01-30T10:54:50;4.83;;;1.20;;
20976;SDS011;10647;51.016;3.720;2023-01-30T10:57:41;6.10;;;1.17;;
20976;SDS011;10647;51.016;3.720;2023-01-30T11:06:13;10.13;;;1.33;;
20976;SDS011;10647;51.016;3.720;2023-01-30T11:08:45;7.70;;;1.47;;
20976;SDS011;10647;51.016;3.720;2023-01-30T11:11:48;12.87;;;2.00;;
20976;SDS011;10647;51.016;3.720;2023-01-30T11:14:02;7.47;;;1.10;;
20976;SDS011;10647;51.016;3.720;2023-01-30T11:16:32;10.83;;;1.73;;
20976;SDS011;10647;51.016;3.720;2023-01-30T11:19:31;4.30;;;1.17;;
20976;SDS011;10647;51.016;3.720;2023-01-30T11:22:03;12.00;;;2.83;;
20976;SDS011;10647;51.016;3.720;2023-01-30T11:24:43;20.13;;;2.60;;
20976;SDS011;10647;51.016;3.720;2023-01-30T11:27:22;15.90;;;2.50;;
20976;SDS011;10647;51.016;3.720;2023-01-30T11:30:01;15.30;;;2.23;;
20976;SDS011;10647;51.016;3.720;2023-01-30T11:32:31;4.63;;;0.87;;
20976;SDS011;10647;51.016;3.720;2023-01-30T11:35:06;17.93;;;2.10;;
20976;SDS011;10647;51.016;3.720;2023-01-30T11:37:35;10.13;;;1.50;;
20976;SDS011;10647;51.016;3.720;2023-01-30T11:40:26;3.30;;;1.00;;
20976;SDS011;10647;51.016;3.720;2023-01-30T11:43:02;11.17;;;1.77;;
20976;SDS011;10647;51.016;3.720;2023-01-30T11:45:35;12.80;;;2.50;;
20976;SDS011;10647;51.016;3.720;2023-01-30T11:48:09;8.90;;;1.97;;
20976;SDS011;10647;51.016;3.720;2023-01-30T11:50:39;12.07;;;2.00;;
20976;SDS011;10647;51.016;3.720;2023-01-30T11:53:35;7.53;;;1.23;;
20976;SDS011;10647;51.016;3.720;2023-01-30T11:56:07;12.17;;;2.13;;
20976;SDS011;10647;51.016;3.720;2023-01-30T11:58:44;13.20;;;1.50;;
20976;SDS011;10647;51.016;3.720;2023-01-30T12:01:16;13.30;;;2.17;;
20976;SDS011;10647;51.016;3.720;2023-01-30T12:03:48;16.17;;;2.00;;
20976;SDS011;10647;51.016;3.720;2023-01-30T12:06:31;9.37;;;1.43;;
20976;SDS011;10647;51.016;3.720;2023-01-30T12:09:03;10.13;;;1.97;;
20976;SDS011;10647;51.016;3.720;2023-01-30T12:14:20;26.87;;;2.73;;
20976;SDS011;10647;51.016;3.720;2023-01-30T12:16:53;16.57;;;2.40;;
20976;SDS011;10647;51.016;3.720;2023-01-30T12:25:41;12.07;;;1.97;;
20976;SDS011;10647;51.016;3.720;2023-01-30T12:28:21;9.77;;;2.13;;
20976;SDS011;10647;51.016;3.720;2023-01-30T12:30:54;15.13;;;2.30;;
20976;SDS011;10647;51.016;3.720;2023-01-30T12:33:32;15.03;;;2.20;;
20976;SDS011;10647;51.016;3.720;2023-01-30T12:53:17;12.40;;;2.60;;
20976;SDS011;10647;51.016;3.720;2023-01-30T12:58:59;5.10;;;1.20;;
20976;SDS011;10647;51.016;3.720;2023-01-30T13:01:47;14.33;;;2.03;;
20976;SDS011;10647;51.016;3.720;2023-01-30T13:12:45;15.97;;;1.80;;
20976;SDS011;10647;51.016;3.720;2023-01-30T13:18:31;13.93;;;2.10;;
20976;SDS011;10647;51.016;3.720;2023-01-30T13:26:35;9.00;;;1.77;;
20976;SDS011;10647;51.016;3.720;2023-01-30T13:29:25;15.57;;;2.20;;
20976;SDS011;10647;51.016;3.720;2023-01-30T13:32:04;16.67;;;2.25;;
20976;SDS011;10647;51.016;3.720;2023-01-30T13:34:38;7.62;;;1.82;;
20976;SDS011;10647;51.016;3.720;2023-01-30T13:37:28;12.05;;;1.80;;
20976;SDS011;10647;51.016;3.720;2023-01-30T13:40:02;12.75;;;2.62;;
20976;SDS011;10647;51.016;3.720;2023-01-30T13:42:36;12.63;;;2.95;;
20976;SDS011;10647;51.016;3.720;2023-01-30T13:45:13;9.60;;;1.85;;
20976;SDS011;10647;51.016;3.720;2023-01-30T13:53:45;18.23;;;2.92;;
20976;SDS011;10647;51.016;3.720;2023-01-30T13:56:47;9.33;;;1.60;;
20976;SDS011;10647;51.016;3.720;2023-01-30T14:02:17;13.93;;;2.12;;
20976;SDS011;10647;51.016;3.720;2023-01-30T14:04:50;7.62;;;1.57;;
20976;SDS011;10647;51.016;3.720;2023-01-30T14:07:25;10.00;;;2.05;;
20976;SDS011;10647;51.016;3.720;2023-01-30T14:10:10;17.77;;;2.85;;
20976;SDS011;10647;51.016;3.720;2023-01-30T14:15:22;10.95;;;1.98;;
20976;SDS011;10647;51.016;3.720;2023-01-30T14:20:32;34.58;;;7.75;;
20976;SDS011;10647;51.016;3.720;2023-01-30T14:23:03;13.60;;;2.12;;
20976;SDS011;10647;51.016;3.720;2023-01-30T14:25:33;18.12;;;2.33;;
20976;SDS011;10647;51.016;3.720;2023-01-30T14:38:32;11.45;;;2.00;;
20976;SDS011;10647;51.016;3.720;2023-01-30T14:49:18;14.58;;;2.08;;
20976;SDS011;10647;51.016;3.720;2023-01-30T14:51:49;18.37;;;2.35;;
20976;SDS011;10647;51.016;3.720;2023-01-30T14:54:20;19.98;;;2.45;;
20976;SDS011;10647;51.016;3.720;2023-01-30T14:57:02;9.93;;;1.80;;
20976;SDS011;10647;51.016;3.720;2023-01-30T15:02:17;13.27;;;2.00;;
20976;SDS011;10647;51.016;3.720;2023-01-30T15:05:13;14.67;;;2.67;;
20976;SDS011;10647;51.016;3.720;2023-01-30T15:07:50;12.73;;;1.73;;
20976;SDS011;10647;51.016;3.720;2023-01-30T15:27:22;11.03;;;2.00;;
20976;SDS011;10647;51.016;3.720;2023-01-30T15:33:13;10.13;;;1.87;;
20976;SDS011;10647;51.016;3.720;2023-01-30T15:35:43;18.10;;;2.50;;
20976;SDS011;10647;51.016;3.720;2023-01-30T15:46:53;15.20;;;2.20;;
20976;SDS011;10647;51.016;3.720;2023-01-30T15:52:16;7.87;;;1.37;;
20976;SDS011;10647;51.016;3.720;2023-01-30T15:54:52;5.40;;;0.93;;
20976;SDS011;10647;51.016;3.720;2023-01-30T15:57:26;18.40;;;2.43;;
20976;SDS011;10647;51.016;3.720;2023-01-30T16:00:01;11.50;;;2.07;;
20976;SDS011;10647;51.016;3.720;2023-01-30T16:02:32;12.10;;;1.80;;
20976;SDS011;10647;51.016;3.720;2023-01-30T16:07:49;9.83;;;2.07;;
20976;SDS011;10647;51.016;3.720;2023-01-30T16:13:01;10.70;;;1.30;;
20976;SDS011;10647;51.016;3.720;2023-01-30T16:16:12;17.03;;;2.70;;
20976;SDS011;10647;51.016;3.720;2023-01-30T16:26:47;17.33;;;2.80;;
20976;SDS011;10647;51.016;3.720;2023-01-30T16:29:34;16.13;;;2.27;;
20976;SDS011;10647;51.016;3.720;2023-01-30T16:32:05;16.43;;;2.33;;
20976;SDS011;10647;51.016;3.720;2023-01-30T16:34:36;15.40;;;1.87;;
20976;SDS011;10647;51.016;3.720;2023-01-30T16:40:07;18.67;;;2.40;;
20976;SDS011;10647;51.016;3.720;2023-01-30T16:42:54;14.90;;;3.03;;
20976;SDS011;10647;51.016;3.720;2023-01-30T16:53:54;16.37;;;2.70;;
20976;SDS011;10647;51.016;3.720;2023-01-30T16:56:39;17.27;;;2.50;;
20976;SDS011;10647;51.016;3.720;2023-01-30T16:59:11;24.30;;;2.80;;
20976;SDS011;10647;51.016;3.720;2023-01-30T17:01:59;19.07;;;3.40;;
20976;SDS011;10647;51.016;3.720;2023-01-30T17:04:30;22.90;;;3.60;;
20976;SDS011;10647;51.016;3.720;2023-01-30T17:07:33;28.50;;;3.50;;
20976;SDS011;10647;51.016;3.720;2023-01-30T17:13:32;25.17;;;2.93;;
20976;SDS011;10647;51.016;3.720;2023-01-30T17:16:29;18.70;;;3.10;;
20976;SDS011;10647;51.016;3.720;2023-01-30T17:18:59;19.83;;;3.10;;
20976;SDS011;10647;51.016;3.720;2023-01-30T17:21:29;20.00;;;3.40;;
20976;SDS011;10647;51.016;3.720;2023-01-30T17:23:59;22.13;;;3.00;;
20976;SDS011;10647;51.016;3.720;2023-01-30T17:26:28;14.63;;;2.87;;
20976;SDS011;10647;51.016;3.720;2023-01-30T17:28:57;25.47;;;3.23;;
20976;SDS011;10647;51.016;3.720;2023-01-30T17:31:25;17.70;;;3.20;;
20976;SDS011;10647;51.016;3.720;2023-01-30T17:33:52;17.37;;;3.20;;
20976;SDS011;10647;51.016;3.720;2023-01-30T17:36:26;19.20;;;3.70;;
20976;SDS011;10647;51.016;3.720;2023-01-30T17:38:56;18.90;;;3.60;;
20976;SDS011;10647;51.016;3.720;2023-01-30T17:41:26;23.17;;;3.80;;
20976;SDS011;10647;51.016;3.720;2023-01-30T17:43:55;25.67;;;4.27;;
20976;SDS011;10647;51.016;3.720;2023-01-30T17:46:26;26.13;;;4.03;;
20976;SDS011;10647;51.016;3.720;2023-01-30T17:48:56;21.40;;;3.97;;
20976;SDS011;10647;51.016;3.720;2023-01-30T17:51:24;22.90;;;4.07;;
20976;SDS011;10647;51.016;3.720;2023-01-30T17:53:51;21.23;;;3.70;;
20976;SDS011;10647;51.016;3.720;2023-01-30T17:56:25;22.57;;;3.93;;
20976;SDS011;10647;51.016;3.720;2023-01-30T17:58:49;28.67;;;4.07;;
20976;SDS011;10647;51.016;3.720;2023-01-30T18:01:17;24.20;;;4.20;;
20976;SDS011;10647;51.016;3.720;2023-01-30T18:03:44;17.37;;;3.90;;
20976;SDS011;10647;51.016;3.720;2023-01-30T18:06:12;20.03;;;3.97;;
20976;SDS011;10647;51.016;3.720;2023-01-30T18:08:41;22.47;;;4.13;;
20976;SDS011;10647;51.016;3.720;2023-01-30T18:11:09;24.27;;;3.50;;
20976;SDS011;10647;51.016;3.720;2023-01-30T18:13:38;22.00;;;3.60;;
20976;SDS011;10647;51.016;3.720;2023-01-30T18:16:16;23.43;;;3.83;;
20976;SDS011;10647;51.016;3.720;2023-01-30T18:21:30;23.37;;;4.20;;
20976;SDS011;10647;51.016;3.720;2023-01-30T18:23:59;31.03;;;3.90;;
20976;SDS011;10647;51.016;3.720;2023-01-30T18:26:27;26.57;;;4.13;;
20976;SDS011;10647;51.016;3.720;2023-01-30T18:28:55;20.00;;;3.53;;
20976;SDS011;10647;51.016;3.720;2023-01-30T18:31:23;20.67;;;4.30;;
20976;SDS011;10647;51.016;3.720;2023-01-30T18:33:51;27.97;;;4.50;;
20976;SDS011;10647;51.016;3.720;2023-01-30T18:36:20;23.10;;;4.57;;
20976;SDS011;10647;51.016;3.720;2023-01-30T18:38:48;19.93;;;4.70;;
20976;SDS011;10647;51.016;3.720;2023-01-30T18:41:18;27.80;;;4.77;;
20976;SDS011;10647;51.016;3.720;2023-01-30T18:43:51;23.63;;;5.23;;
20976;SDS011;10647;51.016;3.720;2023-01-30T18:46:31;25.97;;;4.63;;
20976;SDS011;10647;51.016;3.720;2023-01-30T18:48:59;20.27;;;4.87;;
20976;SDS011;10647;51.016;3.720;2023-01-30T18:51:28;24.07;;;4.93;;
20976;SDS011;10647;51.016;3.720;2023-01-30T18:53:58;27.60;;;5.43;;
20976;SDS011;10647;51.016;3.720;2023-01-30T18:56:28;30.13;;;5.97;;
20976;SDS011;10647;51.016;3.720;2023-01-30T18:58:59;30.13;;;5.73;;
20976;SDS011;10647;51.016;3.720;2023-01-30T19:01:31;21.37;;;6.00;;
20976;SDS011;10647;51.016;3.720;2023-01-30T19:04:03;23.43;;;6.17;;
20976;SDS011;10647;51.016;3.720;2023-01-30T19:06:40;29.70;;;6.20;;
20976;SDS011;10647;51.016;3.720;2023-01-30T19:14:50;25.20;;;6.37;;
20976;SDS011;10647;51.016;3.720;2023-01-30T19:17:20;31.13;;;7.20;;
20976;SDS011;10647;51.016;3.720;2023-01-30T19:19:48;26.67;;;6.90;;
20976;SDS011;10647;51.016;3.720;2023-01-30T19:22:15;30.40;;;7.03;;
20976;SDS011;10647;51.016;3.720;2023-01-30T19:24:43;18.77;;;6.60;;